createdAt,value
2022-10-14T00:01:33.034Z,21.63
2022-10-14T00:04:02.350Z,20.80
2022-10-14T00:06:34.280Z,16.17
2022-10-14T00:09:06.801Z,17.40
2022-10-14T00:11:39.059Z,17.60
2022-10-14T00:14:11.653Z,19.33
2022-10-14T00:16:44.383Z,18.47
2022-10-14T00:19:15.722Z,18.60
2022-10-14T00:21:46.959Z,19.00
2022-10-14T00:24:18.919Z,18.23
2022-10-14T00:26:49.084Z,16.57
2022-10-14T00:29:19.831Z,18.00
2022-10-14T00:31:51.780Z,17.40
2022-10-14T00:34:20.931Z,17.13
2022-10-14T00:36:49.673Z,18.10
2022-10-14T00:39:20.778Z,19.93
2022-10-14T00:41:50.782Z,18.27
2022-10-14T00:47:01.919Z,18.07
2022-10-14T00:49:35.278Z,18.37
2022-10-14T00:52:10.168Z,15.93
2022-10-14T00:54:45.280Z,18.83
2022-10-14T00:57:15.205Z,18.93
2022-10-14T00:59:43.907Z,14.77
2022-10-14T01:02:13.996Z,16.40
2022-10-14T01:04:46.680Z,16.07
2022-10-14T01:07:33.049Z,17.47
2022-10-14T01:10:15.018Z,22.80
2022-10-14T01:13:06.151Z,20.63
2022-10-14T01:15:45.624Z,16.13
2022-10-14T01:18:38.257Z,19.70
2022-10-14T01:21:19.277Z,18.17
2022-10-14T01:24:41.784Z,20.83
2022-10-14T01:27:55.259Z,20.30
2022-10-14T01:30:27.835Z,14.50
2022-10-14T01:33:12.847Z,18.00
2022-10-14T01:36:01.186Z,17.03
2022-10-14T01:38:35.956Z,15.00
2022-10-14T01:41:15.323Z,18.43
2022-10-14T01:43:49.699Z,18.07
2022-10-14T01:46:24.016Z,19.60
2022-10-14T01:48:59.404Z,20.40
2022-10-14T01:51:35.902Z,16.57
2022-10-14T01:54:11.263Z,16.23
2022-10-14T01:56:42.739Z,17.67
2022-10-14T01:59:16.331Z,17.77
2022-10-14T02:01:46.383Z,18.43
2022-10-14T02:04:19.646Z,19.00
2022-10-14T02:06:58.956Z,17.30
2022-10-14T02:09:37.425Z,19.63
2022-10-14T02:12:23.139Z,16.67
2022-10-14T02:15:11.154Z,16.57
2022-10-14T02:17:55.184Z,16.17
2022-10-14T02:20:33.289Z,18.60
2022-10-14T02:23:14.760Z,16.27
2022-10-14T02:25:47.986Z,16.47
2022-10-14T02:28:21.930Z,16.17
2022-10-14T02:30:57.082Z,19.83
2022-10-14T02:33:37.816Z,18.07
2022-10-14T02:36:13.568Z,14.83
2022-10-14T02:38:44.604Z,17.17
2022-10-14T02:41:20.361Z,15.10
2022-10-14T02:43:53.006Z,15.70
2022-10-14T02:46:23.945Z,19.47
2022-10-14T02:48:53.986Z,16.80
2022-10-14T02:51:22.624Z,16.97
2022-10-14T02:53:51.353Z,17.20
2022-10-14T02:56:20.651Z,16.30
2022-10-14T02:58:49.398Z,15.53
2022-10-14T03:01:18.448Z,15.83
2022-10-14T03:03:47.215Z,15.10
2022-10-14T03:06:17.636Z,15.03
2022-10-14T03:08:48.195Z,16.57
2022-10-14T03:11:17.132Z,17.60
2022-10-14T03:13:46.352Z,17.17
2022-10-14T03:16:15.107Z,17.80
2022-10-14T03:18:46.728Z,13.73
2022-10-14T03:21:24.771Z,17.17
2022-10-14T03:23:54.184Z,14.23
2022-10-14T03:26:31.289Z,19.73
2022-10-14T03:29:00.006Z,13.03
2022-10-14T03:31:43.260Z,16.20
2022-10-14T03:34:31.780Z,16.97
2022-10-14T03:37:08.924Z,17.03
2022-10-14T03:39:45.997Z,16.97
2022-10-14T03:42:16.443Z,15.20
2022-10-14T03:44:49.181Z,16.00
2022-10-14T03:47:28.230Z,16.07
2022-10-14T03:49:56.922Z,14.10
2022-10-14T03:52:33.384Z,15.90
2022-10-14T03:55:08.849Z,13.57
2022-10-14T03:57:37.533Z,15.90
2022-10-14T04:00:09.758Z,16.60
2022-10-14T04:05:22.067Z,14.73
2022-10-14T04:07:52.134Z,15.83
2022-10-14T04:10:20.040Z,15.27
2022-10-14T04:12:54.888Z,14.63
2022-10-14T04:15:32.204Z,17.17
2022-10-14T04:18:15.902Z,14.07
2022-10-14T04:20:47.338Z,12.77
2022-10-14T04:23:18.081Z,14.23
2022-10-14T04:25:48.987Z,14.73
2022-10-14T04:28:18.339Z,15.40
2022-10-14T04:30:57.905Z,18.90
2022-10-14T04:33:32.551Z,15.10
2022-10-14T04:36:11.286Z,17.67
2022-10-14T04:38:42.638Z,16.60
2022-10-14T04:41:12.883Z,18.43
2022-10-14T04:43:47.900Z,16.53
2022-10-14T04:46:27.207Z,17.13
2022-10-14T04:48:56.487Z,17.43
2022-10-14T04:51:32.626Z,14.17
2022-10-14T04:54:18.516Z,13.67
2022-10-14T04:56:52.179Z,16.93
2022-10-14T04:59:21.412Z,19.00
2022-10-14T05:02:08.314Z,13.37
2022-10-14T05:04:45.248Z,16.67
2022-10-14T05:07:16.676Z,23.37
2022-10-14T05:09:50.373Z,18.37
2022-10-14T05:12:29.476Z,22.43
2022-10-14T05:15:01.806Z,18.93
2022-10-14T05:17:37.957Z,20.47
2022-10-14T05:20:09.137Z,24.07
2022-10-14T05:22:42.652Z,19.87
2022-10-14T05:25:11.778Z,17.67
2022-10-14T05:27:41.141Z,19.53
2022-10-14T05:30:12.087Z,16.20
2022-10-14T05:32:46.579Z,18.80
2022-10-14T05:35:15.508Z,15.60
2022-10-14T05:37:45.574Z,16.23
2022-10-14T05:40:14.330Z,19.60
2022-10-14T05:42:42.930Z,17.57
2022-10-14T05:45:12.502Z,13.40
2022-10-14T05:47:48.260Z,16.90
2022-10-14T05:50:20.214Z,18.30
2022-10-14T05:52:51.286Z,15.87
2022-10-14T05:55:25.879Z,17.37
2022-10-14T05:57:59.568Z,18.70
2022-10-14T06:00:34.846Z,15.93
2022-10-14T06:03:11.469Z,17.37
2022-10-14T06:05:41.069Z,19.57
2022-10-14T06:08:11.814Z,18.03
2022-10-14T06:10:40.723Z,21.57
2022-10-14T06:13:09.387Z,20.70
2022-10-14T06:15:40.475Z,16.93
2022-10-14T06:18:09.154Z,20.13
2022-10-14T06:20:37.939Z,19.27
2022-10-14T06:23:06.901Z,20.50
2022-10-14T06:25:38.070Z,19.67
2022-10-14T06:28:07.299Z,18.20
2022-10-14T06:30:36.100Z,17.90
2022-10-14T06:33:04.805Z,23.20
2022-10-14T06:35:33.531Z,13.23
2022-10-14T06:38:02.187Z,17.00
2022-10-14T06:40:31.006Z,21.63
2022-10-14T06:43:01.338Z,22.13
2022-10-14T06:45:30.210Z,25.07
2022-10-14T06:47:59.432Z,17.87
2022-10-14T06:50:28.131Z,19.60
2022-10-14T06:53:10.821Z,20.17
2022-10-14T06:55:39.429Z,20.40
2022-10-14T06:58:09.415Z,24.10
2022-10-14T07:00:38.321Z,23.10
2022-10-14T07:03:07.100Z,18.50
2022-10-14T07:05:36.862Z,17.47
2022-10-14T07:08:06.178Z,27.30
2022-10-14T07:10:35.968Z,30.53
2022-10-14T07:13:04.642Z,22.83
2022-10-14T07:15:36.222Z,25.07
2022-10-14T07:18:06.633Z,23.20
2022-10-14T07:20:36.011Z,25.23
2022-10-14T07:23:04.637Z,25.50
2022-10-14T07:25:34.080Z,28.73
2022-10-14T07:28:02.698Z,24.07
2022-10-14T07:30:31.568Z,23.83
2022-10-14T07:33:02.271Z,29.30
2022-10-14T07:35:30.987Z,22.87
2022-10-14T07:38:01.157Z,53.80
2022-10-14T07:40:30.106Z,110.63
2022-10-14T07:42:58.671Z,72.80
2022-10-14T07:45:27.267Z,132.43
2022-10-14T07:47:55.923Z,85.03
2022-10-14T07:50:25.984Z,70.47
2022-10-14T07:52:58.891Z,47.40
2022-10-14T07:55:29.560Z,31.70
2022-10-14T07:57:58.152Z,40.57
2022-10-14T08:00:26.844Z,28.60
2022-10-14T08:02:55.972Z,18.27
2022-10-14T08:05:37.773Z,26.77
2022-10-14T08:08:07.467Z,19.93
2022-10-14T08:10:36.982Z,20.47
2022-10-14T08:13:06.360Z,20.43
2022-10-14T08:15:38.812Z,35.17
2022-10-14T08:18:08.390Z,43.53
2022-10-14T08:20:38.775Z,46.07
2022-10-14T08:23:07.388Z,33.17
2022-10-14T08:25:37.726Z,24.10
2022-10-14T08:28:06.540Z,59.10
2022-10-14T08:30:35.214Z,33.73
2022-10-14T08:33:03.910Z,42.97
2022-10-14T08:35:32.518Z,18.80
2022-10-14T08:38:03.480Z,22.70
2022-10-14T08:40:49.114Z,19.00
2022-10-14T08:43:31.286Z,55.00
2022-10-14T08:46:12.549Z,36.03
2022-10-14T08:48:41.864Z,17.63
2022-10-14T08:51:15.505Z,24.10
2022-10-14T08:53:51.545Z,39.93
2022-10-14T08:56:21.849Z,12.53
2022-10-14T08:58:54.499Z,20.70
2022-10-14T09:01:29.038Z,14.33
2022-10-14T09:04:01.911Z,17.90
2022-10-14T09:06:34.624Z,52.70
2022-10-14T09:09:15.479Z,17.73
2022-10-14T09:11:49.358Z,15.10
2022-10-14T09:14:22.846Z,9.53
2022-10-14T09:16:58.012Z,9.87
2022-10-14T09:19:33.381Z,7.33
2022-10-14T09:22:03.423Z,8.47
2022-10-14T09:24:36.681Z,7.27
2022-10-14T09:27:08.594Z,9.27
2022-10-14T09:29:47.972Z,9.17
2022-10-14T09:32:28.370Z,6.57
2022-10-14T09:34:58.696Z,10.27
2022-10-14T09:37:30.909Z,7.73
2022-10-14T09:40:11.455Z,8.03
2022-10-14T09:42:49.876Z,11.67
2022-10-14T09:45:22.652Z,9.10
2022-10-14T09:47:56.710Z,8.13
2022-10-14T09:50:32.049Z,12.73
2022-10-14T09:53:09.248Z,11.50
2022-10-14T09:55:49.397Z,8.57
2022-10-14T09:58:26.656Z,9.70
2022-10-14T10:00:59.299Z,8.63
2022-10-14T10:03:32.613Z,6.73
2022-10-14T10:06:05.653Z,6.20
2022-10-14T10:08:35.311Z,4.83
2022-10-14T10:11:10.531Z,8.03
2022-10-14T10:13:46.232Z,5.17
2022-10-14T10:16:26.882Z,4.90
2022-10-14T10:18:57.426Z,3.67
2022-10-14T10:21:29.861Z,12.90
2022-10-14T10:24:01.485Z,7.33
2022-10-14T10:26:33.903Z,3.03
2022-10-14T10:29:06.132Z,2.63
2022-10-14T10:32:12.215Z,3.23
2022-10-14T10:35:09.131Z,3.83
2022-10-14T10:37:50.460Z,3.10
2022-10-14T10:40:53.141Z,1.97
2022-10-14T10:43:53.617Z,4.50
2022-10-14T10:47:00.868Z,3.63
2022-10-14T10:50:08.707Z,5.30
2022-10-14T10:53:01.338Z,6.20
2022-10-14T10:55:40.759Z,6.40
2022-10-14T10:58:26.345Z,10.43
2022-10-14T11:01:08.169Z,6.47
2022-10-14T11:03:57.830Z,5.80
2022-10-14T11:06:55.951Z,5.63
2022-10-14T11:09:58.160Z,4.37
2022-10-14T11:12:35.890Z,6.23
2022-10-14T11:15:23.695Z,5.43
2022-10-14T11:18:01.526Z,5.37
2022-10-14T11:20:44.735Z,4.13
2022-10-14T11:23:41.418Z,5.50
2022-10-14T11:26:29.915Z,6.50
2022-10-14T11:29:18.938Z,4.13
2022-10-14T11:32:04.116Z,8.03
2022-10-14T11:34:49.870Z,4.13
2022-10-14T11:37:35.955Z,5.80
2022-10-14T11:40:21.269Z,8.73
2022-10-14T11:43:10.362Z,6.23
2022-10-14T11:45:50.058Z,5.27
2022-10-14T11:48:31.259Z,4.97
2022-10-14T11:51:12.683Z,5.27
2022-10-14T11:54:04.926Z,9.00
2022-10-14T11:56:43.521Z,4.10
2022-10-14T11:59:55.928Z,5.03
2022-10-14T12:02:42.055Z,6.03
2022-10-14T12:05:22.762Z,2.90
2022-10-14T12:08:10.910Z,6.23
2022-10-14T12:12:15.810Z,5.50
2022-10-14T12:14:50.226Z,5.80
2022-10-14T12:17:27.349Z,6.20
2022-10-14T12:19:57.071Z,11.50
2022-10-14T12:22:30.570Z,5.93
2022-10-14T12:25:07.476Z,6.17
2022-10-14T12:27:37.957Z,4.87
2022-10-14T12:30:37.083Z,6.63
2022-10-14T12:33:10.653Z,8.20
2022-10-14T12:36:00.975Z,8.30
2022-10-14T12:38:34.626Z,3.10
2022-10-14T12:41:43.618Z,3.37
2022-10-14T12:44:18.768Z,3.70
2022-10-14T12:46:53.219Z,3.90
2022-10-14T12:49:31.412Z,6.67
2022-10-14T12:52:04.613Z,4.53
2022-10-14T12:54:35.739Z,4.13
2022-10-14T12:57:20.729Z,4.63
2022-10-14T12:59:53.787Z,4.50
2022-10-14T13:02:35.570Z,8.23
2022-10-14T13:05:10.332Z,3.70
2022-10-14T13:07:46.330Z,2.27
2022-10-14T13:10:50.696Z,5.83
2022-10-14T13:14:21.108Z,3.13
2022-10-14T13:17:01.347Z,6.17
2022-10-14T13:19:46.738Z,4.23
2022-10-14T13:22:43.719Z,2.53
2022-10-14T13:25:21.867Z,2.67
2022-10-14T13:28:17.056Z,5.90
2022-10-14T13:31:04.985Z,3.93
2022-10-14T13:33:43.689Z,5.63
2022-10-14T13:36:23.774Z,3.77
2022-10-14T13:38:59.815Z,3.87
2022-10-14T13:41:31.575Z,2.60
2022-10-14T13:44:03.502Z,2.60
2022-10-14T13:46:42.503Z,5.57
2022-10-14T13:49:21.006Z,10.00
2022-10-14T13:51:54.549Z,4.27
2022-10-14T13:54:25.999Z,2.43
2022-10-14T13:57:34.735Z,4.00
2022-10-14T14:02:49.044Z,5.00
2022-10-14T14:05:27.725Z,4.17
2022-10-14T14:11:17.299Z,3.70
2022-10-14T14:14:01.063Z,4.07
2022-10-14T14:16:39.531Z,6.27
2022-10-14T14:19:20.937Z,15.10
2022-10-14T14:21:51.489Z,9.77
2022-10-14T14:24:25.402Z,4.33
2022-10-14T14:26:56.921Z,3.50
2022-10-14T14:29:30.262Z,5.27
2022-10-14T14:32:09.026Z,2.90
2022-10-14T14:34:44.065Z,7.37
2022-10-14T14:37:43.934Z,3.77
2022-10-14T14:40:20.791Z,10.30
2022-10-14T14:42:53.960Z,4.50
2022-10-14T14:45:26.671Z,3.60
2022-10-14T14:47:59.424Z,4.37
2022-10-14T14:50:38.340Z,5.07
2022-10-14T14:53:16.083Z,2.93
2022-10-14T14:55:58.770Z,4.40
2022-10-14T14:58:35.509Z,5.03
2022-10-14T15:01:08.617Z,4.80
2022-10-14T15:04:12.258Z,5.23
2022-10-14T15:06:51.888Z,6.07
2022-10-14T15:09:27.765Z,7.77
2022-10-14T15:11:59.027Z,3.67
2022-10-14T15:14:35.444Z,6.13
2022-10-14T15:17:06.847Z,5.90
2022-10-14T15:19:38.790Z,5.47
2022-10-14T15:22:29.646Z,2.80
2022-10-14T15:25:03.958Z,4.27
2022-10-14T15:27:49.423Z,3.93
2022-10-14T15:30:27.332Z,4.17
2022-10-14T15:33:00.154Z,4.27
2022-10-14T15:35:30.760Z,4.93
2022-10-14T15:38:00.890Z,5.30
2022-10-14T15:40:32.905Z,5.33
2022-10-14T15:43:01.597Z,5.73
2022-10-14T15:45:30.414Z,11.60
2022-10-14T15:48:05.154Z,9.60
2022-10-14T15:50:36.228Z,14.97
2022-10-14T15:53:06.323Z,10.03
2022-10-14T15:55:35.977Z,10.33
2022-10-14T15:58:09.365Z,12.77
2022-10-14T16:00:38.352Z,10.53
2022-10-14T16:03:07.786Z,8.67
2022-10-14T16:05:38.733Z,8.17
2022-10-14T16:08:15.314Z,8.00
2022-10-14T16:10:47.283Z,6.80
2022-10-14T16:13:17.107Z,5.87
2022-10-14T16:15:50.425Z,7.33
2022-10-14T16:18:22.384Z,7.73
2022-10-14T16:20:53.597Z,8.50
2022-10-14T16:23:29.650Z,9.63
2022-10-14T16:26:02.013Z,11.57
2022-10-14T16:28:31.134Z,9.33
2022-10-14T16:31:01.193Z,13.87
2022-10-14T16:33:30.154Z,10.43
2022-10-14T16:36:00.211Z,10.43
2022-10-14T16:38:30.792Z,8.47
2022-10-14T16:41:02.316Z,7.20
2022-10-14T16:43:31.602Z,11.10
2022-10-14T16:46:03.654Z,12.00
2022-10-14T16:48:34.199Z,12.33
2022-10-14T16:51:03.379Z,8.67
2022-10-14T16:53:45.103Z,8.87
2022-10-14T16:56:35.017Z,8.30
2022-10-14T16:59:05.154Z,7.23
2022-10-14T17:01:33.974Z,10.30
2022-10-14T17:04:03.965Z,11.57
2022-10-14T17:06:33.542Z,11.53
2022-10-14T17:09:04.437Z,13.30
2022-10-14T17:11:33.767Z,12.77
2022-10-14T17:14:03.924Z,16.33
2022-10-14T17:16:33.381Z,14.57
2022-10-14T17:19:02.884Z,12.07
2022-10-14T17:21:31.952Z,12.50
2022-10-14T17:24:03.520Z,13.63
2022-10-14T17:26:35.056Z,15.63
2022-10-14T17:29:04.653Z,18.33
2022-10-14T17:31:34.404Z,14.40
2022-10-14T17:34:05.317Z,12.57
2022-10-14T17:36:34.647Z,16.63
2022-10-14T17:39:06.345Z,15.63
2022-10-14T17:41:36.137Z,13.27
2022-10-14T17:44:06.744Z,15.33
2022-10-14T17:46:37.630Z,16.97
2022-10-14T17:49:10.703Z,16.30
2022-10-14T17:51:40.875Z,16.33
2022-10-14T17:54:13.392Z,16.83
2022-10-14T17:56:44.938Z,19.70
2022-10-14T17:59:14.483Z,19.13
2022-10-14T18:02:01.582Z,18.20
2022-10-14T18:04:32.673Z,17.63
2022-10-14T18:07:02.386Z,18.07
2022-10-14T18:09:34.169Z,18.57
2022-10-14T18:12:08.908Z,14.17
2022-10-14T18:14:41.142Z,18.80
2022-10-14T18:17:12.474Z,18.63
2022-10-14T18:19:45.031Z,16.53
2022-10-14T18:22:17.917Z,16.77
2022-10-14T18:24:49.137Z,19.17
2022-10-14T18:27:18.196Z,16.80
2022-10-14T18:29:47.420Z,16.00
2022-10-14T18:37:22.051Z,19.20
2022-10-14T18:39:49.495Z,20.90
2022-10-14T18:42:20.079Z,19.07
2022-10-14T18:44:49.912Z,21.93
2022-10-14T18:47:19.374Z,17.17
2022-10-14T18:49:49.796Z,20.87
2022-10-14T18:52:23.031Z,22.60
2022-10-14T18:54:53.685Z,20.20
2022-10-14T18:57:24.142Z,26.23
2022-10-14T18:59:53.584Z,24.30
2022-10-14T19:02:22.936Z,19.90
2022-10-14T19:04:52.782Z,19.97
2022-10-14T19:07:21.430Z,22.00
2022-10-14T19:09:51.901Z,22.40
2022-10-14T19:12:42.759Z,22.73
2022-10-14T19:15:12.635Z,18.70
2022-10-14T19:17:42.930Z,22.80
2022-10-14T19:20:12.115Z,18.67
2022-10-14T19:22:44.889Z,21.03
2022-10-14T19:25:13.597Z,22.13
2022-10-14T19:27:43.980Z,23.03
2022-10-14T19:30:13.577Z,19.00
2022-10-14T19:32:42.215Z,20.23
2022-10-14T19:35:11.055Z,19.40
2022-10-14T19:37:39.678Z,18.50
2022-10-14T19:40:10.136Z,20.03
2022-10-14T19:42:38.851Z,22.00
2022-10-14T19:45:10.190Z,23.53
2022-10-14T19:47:39.223Z,23.20
2022-10-14T19:50:09.683Z,18.10
2022-10-14T19:52:38.263Z,19.20
2022-10-14T19:55:08.604Z,18.73
2022-10-14T19:57:37.243Z,22.30
2022-10-14T20:00:09.059Z,19.23
2022-10-14T20:05:08.395Z,20.57
2022-10-14T20:07:37.049Z,17.63
2022-10-14T20:10:07.009Z,21.03
2022-10-14T20:12:35.685Z,21.73
2022-10-14T20:15:04.699Z,19.43
2022-10-14T20:17:35.126Z,21.47
2022-10-14T20:20:03.789Z,25.53
2022-10-14T20:22:33.818Z,23.53
2022-10-14T20:25:02.395Z,23.77
2022-10-14T20:27:31.052Z,20.23
2022-10-14T20:29:59.795Z,21.73
2022-10-14T20:32:28.408Z,22.33
2022-10-14T20:35:01.809Z,19.03
2022-10-14T20:37:33.028Z,31.03
2022-10-14T20:40:02.066Z,19.40
2022-10-14T20:42:30.692Z,22.07
2022-10-14T20:44:59.267Z,24.17
2022-10-14T20:47:27.862Z,21.00
2022-10-14T20:49:57.967Z,21.23
2022-10-14T20:52:26.704Z,23.17
2022-10-14T20:54:55.339Z,19.73
2022-10-14T20:57:25.000Z,18.83
2022-10-14T20:59:53.857Z,22.27
2022-10-14T21:02:23.335Z,20.13
2022-10-14T21:04:54.110Z,20.17
2022-10-14T21:07:24.705Z,18.27
2022-10-14T21:09:53.648Z,19.30
2022-10-14T21:12:22.636Z,22.47
2022-10-14T21:14:51.615Z,18.37
2022-10-14T21:17:20.411Z,16.77
2022-10-14T21:19:50.165Z,14.93
2022-10-14T21:22:18.799Z,16.23
2022-10-14T21:24:48.803Z,15.97
2022-10-14T21:27:17.524Z,15.00
2022-10-14T21:29:46.236Z,11.30
2022-10-14T21:32:14.948Z,14.80
2022-10-14T21:34:43.537Z,13.93
2022-10-14T21:37:12.197Z,13.33
2022-10-14T21:39:40.900Z,13.97
2022-10-14T21:42:11.161Z,14.40
2022-10-14T21:44:39.832Z,11.50
2022-10-14T21:47:08.437Z,12.63
2022-10-14T21:49:37.168Z,14.53
2022-10-14T21:52:06.185Z,15.43
2022-10-14T21:54:34.850Z,16.10
2022-10-14T21:57:03.473Z,13.37
2022-10-14T21:59:33.460Z,11.80
2022-10-14T22:02:02.158Z,17.40
2022-10-14T22:04:34.510Z,14.27
2022-10-14T22:07:06.686Z,13.50
2022-10-14T22:09:35.302Z,12.93
2022-10-14T22:12:04.935Z,11.77
2022-10-14T22:14:34.981Z,12.13
2022-10-14T22:17:03.687Z,17.20
2022-10-14T22:19:32.570Z,14.70
2022-10-14T22:22:03.323Z,12.67
2022-10-14T22:24:32.053Z,12.60
2022-10-14T22:27:00.704Z,14.13
2022-10-14T22:29:29.469Z,14.77
2022-10-14T22:31:59.494Z,17.03
2022-10-14T22:34:28.034Z,16.83
2022-10-14T22:36:56.739Z,13.03
2022-10-14T22:39:27.159Z,12.47
2022-10-14T22:41:55.765Z,14.43
2022-10-14T22:44:24.566Z,14.40
2022-10-14T22:46:54.621Z,12.90
2022-10-14T22:49:24.740Z,14.20
2022-10-14T22:51:56.613Z,15.53
2022-10-14T22:54:25.685Z,17.50
2022-10-14T22:56:54.300Z,13.20
2022-10-14T22:59:22.961Z,14.77
2022-10-14T23:01:51.766Z,14.43
2022-10-14T23:04:20.868Z,16.17
2022-10-14T23:06:51.679Z,15.27
2022-10-14T23:09:20.321Z,16.37
2022-10-14T23:11:49.014Z,15.23
2022-10-14T23:14:17.700Z,16.37
2022-10-14T23:16:46.309Z,12.00
2022-10-14T23:19:14.932Z,12.60
2022-10-14T23:21:44.624Z,11.30
2022-10-14T23:24:14.734Z,14.60
2022-10-14T23:26:43.383Z,16.00
2022-10-14T23:29:13.046Z,12.97
2022-10-14T23:31:43.490Z,15.33
2022-10-14T23:34:15.157Z,14.37
2022-10-14T23:36:44.277Z,13.50
2022-10-14T23:39:14.480Z,16.27
2022-10-14T23:41:43.439Z,13.10
2022-10-14T23:44:13.110Z,13.10
2022-10-14T23:46:41.829Z,11.87
2022-10-14T23:49:26.024Z,12.27
2022-10-14T23:51:55.467Z,11.13
2022-10-14T23:54:25.728Z,12.67
2022-10-14T23:56:54.405Z,13.37
2022-10-14T23:59:23.059Z,17.87
